createdAt,value
2018-02-02T00:00:30.457Z,97.44
2018-02-02T00:01:30.426Z,97.16
2018-02-02T00:02:30.371Z,97.54
2018-02-02T00:03:30.340Z,97.35
2018-02-02T00:04:30.322Z,97.54
2018-02-02T00:05:30.253Z,97.54
2018-02-02T00:06:30.200Z,97.25
2018-02-02T00:07:30.157Z,97.54
2018-02-02T00:08:30.116Z,96.97
2018-02-02T00:09:30.074Z,97.54
2018-02-02T00:10:30.060Z,97.44
2018-02-02T00:11:29.987Z,96.97
2018-02-02T00:12:29.943Z,96.59
2018-02-02T00:13:29.894Z,96.21
2018-02-02T00:14:29.861Z,96.78
2018-02-02T00:15:29.816Z,96.31
2018-02-02T00:16:29.801Z,96.78
2018-02-02T00:17:29.728Z,96.59
2018-02-02T00:18:29.682Z,96.88
2018-02-02T00:19:29.645Z,96.97
2018-02-02T00:20:29.601Z,96.21
2018-02-02T00:21:29.559Z,96.92
2018-02-02T00:22:29.533Z,95.88
2018-02-02T00:23:29.469Z,95.79
2018-02-02T00:24:29.434Z,95.79
2018-02-02T00:25:29.379Z,96.07
2018-02-02T00:26:29.335Z,96.17
2018-02-02T00:27:29.296Z,95.98
2018-02-02T00:28:29.276Z,96.36
2018-02-02T00:29:29.206Z,96.26
2018-02-02T00:30:29.162Z,95.36
2018-02-02T00:31:29.121Z,95.41
2018-02-02T00:32:29.079Z,96.26
2018-02-02T00:33:29.035Z,96.36
2018-02-02T00:34:29.021Z,96.17
2018-02-02T00:35:28.950Z,95.79
2018-02-02T00:36:28.905Z,96.07
2018-02-02T00:37:28.854Z,95.98
2018-02-02T00:38:28.823Z,96.07
2018-02-02T00:39:28.774Z,95.41
2018-02-02T00:40:28.753Z,96.26
2018-02-02T00:41:28.692Z,95.83
2018-02-02T00:42:28.648Z,95.50
2018-02-02T00:43:28.599Z,96.07
2018-02-02T00:44:28.556Z,96.17
2018-02-02T00:45:28.536Z,96.36
2018-02-02T00:46:28.478Z,96.45
2018-02-02T00:47:28.430Z,95.98
2018-02-02T00:48:28.390Z,95.50
2018-02-02T00:49:28.342Z,96.26
2018-02-02T00:50:28.322Z,96.45
2018-02-02T00:51:28.257Z,96.36
2018-02-02T00:52:28.214Z,95.79
2018-02-02T00:53:28.165Z,96.55
2018-02-02T00:54:28.124Z,96.17
2018-02-02T00:55:28.090Z,96.26
2018-02-02T00:56:28.067Z,96.17
2018-02-02T00:57:28.003Z,96.07
2018-02-02T00:58:27.957Z,96.26
2018-02-02T00:59:27.907Z,95.88
2018-02-02T01:00:27.867Z,96.07
2018-02-02T01:01:27.830Z,96.26
2018-02-02T01:02:27.817Z,95.83
2018-02-02T01:03:27.734Z,95.88
2018-02-02T01:04:27.693Z,96.07
2018-02-02T01:05:27.653Z,95.79
2018-02-02T01:06:27.613Z,95.98
2018-02-02T01:07:27.570Z,96.07
2018-02-02T01:08:27.553Z,96.64
2018-02-02T01:09:27.480Z,96.45
2018-02-02T01:10:27.433Z,96.17
2018-02-02T01:11:27.395Z,96.36
2018-02-02T01:12:27.348Z,95.79
2018-02-02T01:13:27.406Z,96.07
2018-02-02T01:14:27.298Z,96.21
2018-02-02T01:15:27.226Z,96.55
2018-02-02T01:16:27.175Z,96.50
2018-02-02T01:17:27.136Z,96.36
2018-02-02T01:18:27.086Z,96.50
2018-02-02T01:19:27.044Z,96.73
2018-02-02T01:20:27.039Z,96.73
2018-02-02T01:21:26.964Z,96.83
2018-02-02T01:22:26.926Z,96.73
2018-02-02T01:23:26.871Z,96.64
2018-02-02T01:24:26.832Z,96.45
2018-02-02T01:25:26.785Z,96.64
2018-02-02T01:26:26.780Z,96.83
2018-02-02T01:27:26.706Z,96.73
2018-02-02T01:28:26.666Z,96.64
2018-02-02T01:29:26.616Z,96.55
2018-02-02T01:30:26.571Z,96.73
2018-02-02T01:31:26.533Z,96.50
2018-02-02T01:32:26.524Z,96.64
2018-02-02T01:33:26.443Z,96.73
2018-02-02T01:34:26.404Z,96.73
2018-02-02T01:35:26.362Z,96.55
2018-02-02T01:36:26.316Z,96.64
2018-02-02T01:37:26.322Z,96.36
2018-02-02T01:38:26.257Z,95.98
2018-02-02T01:39:26.182Z,96.55
2018-02-02T01:40:26.146Z,96.26
2018-02-02T01:41:26.108Z,96.73
2018-02-02T01:42:26.065Z,96.73
2018-02-02T01:43:26.019Z,96.83
2018-02-02T01:44:25.998Z,96.45
2018-02-02T01:45:25.936Z,96.73
2018-02-02T01:46:25.881Z,96.64
2018-02-02T01:47:25.854Z,96.45
2018-02-02T01:48:25.800Z,96.36
2018-02-02T01:49:25.757Z,96.83
2018-02-02T01:50:25.744Z,96.92
2018-02-02T01:51:25.673Z,96.83
2018-02-02T01:52:25.634Z,96.92
2018-02-02T01:53:25.591Z,96.55
2018-02-02T01:54:25.539Z,96.45
2018-02-02T01:55:25.503Z,96.83
2018-02-02T01:56:25.480Z,96.73
2018-02-02T01:57:25.409Z,96.64
2018-02-02T01:58:25.369Z,97.11
2018-02-02T01:59:25.325Z,96.55
2018-02-02T02:00:25.282Z,97.30
2018-02-02T02:01:25.270Z,96.83
2018-02-02T02:02:25.201Z,96.73
2018-02-02T02:03:25.161Z,96.73
2018-02-02T02:04:25.105Z,96.92
2018-02-02T02:05:25.063Z,96.45
2018-02-02T02:06:25.019Z,97.21
2018-02-02T02:07:25.015Z,96.92
2018-02-02T02:08:24.937Z,97.49
2018-02-02T02:09:24.901Z,97.30
2018-02-02T02:10:24.851Z,97.30
2018-02-02T02:11:24.805Z,97.21
2018-02-02T02:12:24.760Z,97.30
2018-02-02T02:13:24.754Z,97.11
2018-02-02T02:14:24.681Z,96.92
2018-02-02T02:15:24.640Z,96.92
2018-02-02T02:16:24.591Z,97.59
2018-02-02T02:17:24.544Z,97.30
2018-02-02T02:18:24.509Z,97.68
2018-02-02T02:19:24.488Z,97.11
2018-02-02T02:20:24.428Z,97.78
2018-02-02T02:21:24.380Z,97.49
2018-02-02T02:22:24.339Z,97.21
2018-02-02T02:23:24.299Z,97.21
2018-02-02T02:24:24.244Z,97.78
2018-02-02T02:25:24.238Z,97.68
2018-02-02T02:26:24.166Z,97.59
2018-02-02T02:27:24.118Z,97.40
2018-02-02T02:28:24.074Z,98.25
2018-02-02T02:29:24.042Z,97.97
2018-02-02T02:30:23.995Z,98.06
2018-02-02T02:31:23.981Z,98.06
2018-02-02T02:32:23.901Z,97.40
2018-02-02T02:33:23.901Z,97.87
2018-02-02T02:34:23.816Z,97.59
2018-02-02T02:35:23.785Z,97.59
2018-02-02T02:36:23.734Z,97.68
2018-02-02T02:37:23.720Z,98.06
2018-02-02T02:38:23.642Z,98.16
2018-02-02T02:39:23.607Z,97.97
2018-02-02T02:40:23.562Z,99.01
2018-02-02T02:41:23.514Z,99.86
2018-02-02T02:42:23.469Z,99.99
2018-02-02T02:43:23.452Z,99.86
2018-02-02T02:44:23.393Z,99.99
2018-02-02T02:45:23.347Z,99.99
2018-02-02T02:46:23.306Z,99.99
2018-02-02T02:47:23.276Z,99.99
2018-02-02T02:48:23.233Z,99.99
2018-02-02T02:49:23.168Z,99.99
2018-02-02T02:50:23.123Z,99.99
2018-02-02T02:51:23.082Z,99.99
2018-02-02T02:52:23.048Z,99.99
2018-02-02T02:53:23.031Z,99.99
2018-02-02T02:54:22.965Z,99.99
2018-02-02T02:55:22.916Z,99.99
2018-02-02T02:56:22.865Z,99.99
2018-02-02T02:57:22.828Z,99.99
2018-02-02T02:58:22.780Z,99.99
2018-02-02T02:59:22.771Z,99.99
2018-02-02T03:00:22.696Z,99.99
2018-02-02T03:01:22.653Z,99.99
2018-02-02T03:02:22.607Z,99.99
2018-02-02T03:03:22.565Z,99.99
2018-02-02T03:04:22.532Z,99.99
2018-02-02T03:05:22.502Z,99.99
2018-02-02T03:06:22.431Z,99.99
2018-02-02T03:07:22.395Z,99.99
2018-02-02T03:08:22.354Z,99.99
2018-02-02T03:09:22.299Z,99.99
2018-02-02T03:10:22.263Z,99.99
2018-02-02T03:11:22.258Z,99.99
2018-02-02T03:12:22.180Z,99.99
2018-02-02T03:13:22.140Z,99.99
2018-02-02T03:14:22.082Z,99.99
2018-02-02T03:15:22.046Z,99.99
2018-02-02T03:16:21.995Z,99.99
2018-02-02T03:17:21.982Z,99.99
2018-02-02T03:18:21.914Z,99.99
2018-02-02T03:19:21.882Z,99.99
2018-02-02T03:20:21.828Z,99.99
2018-02-02T03:21:21.800Z,99.99
2018-02-02T03:22:21.736Z,99.99
2018-02-02T03:23:21.731Z,99.99
2018-02-02T03:24:21.647Z,99.99
2018-02-02T03:25:21.600Z,99.99
2018-02-02T03:26:21.581Z,99.99
2018-02-02T03:27:21.530Z,99.99
2018-02-02T03:28:21.508Z,99.99
2018-02-02T03:29:21.429Z,99.99
2018-02-02T03:30:21.388Z,99.99
2018-02-02T03:31:21.340Z,99.99
2018-02-02T03:32:21.301Z,99.99
2018-02-02T03:33:21.284Z,99.99
2018-02-02T03:34:21.213Z,99.99
2018-02-02T03:35:21.169Z,99.99
2018-02-02T03:36:21.116Z,99.99
2018-02-02T03:37:21.085Z,99.99
2018-02-02T03:38:21.040Z,99.99
2018-02-02T03:39:21.018Z,99.99
2018-02-02T03:40:20.947Z,99.99
2018-02-02T03:41:20.906Z,99.99
2018-02-02T03:42:30.383Z,99.99
2018-02-02T03:43:20.833Z,99.99
2018-02-02T03:44:20.776Z,99.99
2018-02-02T03:45:20.762Z,99.99
2018-02-02T03:46:20.687Z,99.99
2018-02-02T03:47:20.644Z,99.99
2018-02-02T03:48:20.594Z,99.99
2018-02-02T03:49:20.598Z,99.99
2018-02-02T03:50:20.514Z,99.99
2018-02-02T03:51:20.490Z,99.99
2018-02-02T03:52:20.426Z,99.99
2018-02-02T03:53:20.374Z,99.99
2018-02-02T03:54:20.337Z,99.99
2018-02-02T03:55:20.289Z,99.99
2018-02-02T03:56:20.249Z,99.99
2018-02-02T03:57:20.227Z,99.99
2018-02-02T03:58:20.156Z,99.99
2018-02-02T03:59:20.116Z,99.99
2018-02-02T04:00:20.069Z,99.99
2018-02-02T04:01:20.027Z,99.99
2018-02-02T04:02:19.988Z,99.99
2018-02-02T04:03:19.973Z,99.99
2018-02-02T04:04:19.902Z,99.99
2018-02-02T04:05:19.859Z,99.99
2018-02-02T04:06:19.806Z,99.99
2018-02-02T04:07:19.776Z,99.99
2018-02-02T04:08:19.728Z,99.99
2018-02-02T04:09:19.699Z,99.99
2018-02-02T04:10:19.634Z,99.99
2018-02-02T04:11:19.596Z,99.99
2018-02-02T04:12:19.550Z,99.99
2018-02-02T04:13:19.503Z,99.99
2018-02-02T04:14:19.488Z,99.99
2018-02-02T04:15:19.412Z,99.99
2018-02-02T04:16:19.373Z,99.99
2018-02-02T04:17:19.326Z,99.99
2018-02-02T04:18:19.294Z,99.99
2018-02-02T04:19:19.248Z,99.99
2018-02-02T04:20:19.229Z,99.99
2018-02-02T04:21:19.160Z,99.99
2018-02-02T04:22:19.118Z,99.99
2018-02-02T04:23:19.068Z,99.99
2018-02-02T04:24:19.026Z,99.99
2018-02-02T04:25:19.008Z,99.99
2018-02-02T04:26:18.942Z,99.99
2018-02-02T04:27:18.894Z,99.99
2018-02-02T04:28:18.857Z,99.99
2018-02-02T04:29:18.815Z,99.99
2018-02-02T04:30:18.766Z,99.99
2018-02-02T04:31:18.752Z,99.99
2018-02-02T04:32:18.683Z,99.99
2018-02-02T04:33:18.633Z,99.99
2018-02-02T04:34:18.587Z,99.99
2018-02-02T04:35:18.547Z,99.99
2018-02-02T04:36:18.536Z,99.99
2018-02-02T04:37:18.458Z,99.99
2018-02-02T04:38:18.423Z,99.99
2018-02-02T04:39:18.370Z,99.99
2018-02-02T04:40:18.330Z,99.99
2018-02-02T04:41:18.288Z,99.99
2018-02-02T04:42:18.279Z,99.99
2018-02-02T04:43:18.197Z,99.99
2018-02-02T04:44:18.154Z,99.99
2018-02-02T04:45:18.117Z,99.99
2018-02-02T04:46:18.067Z,99.99
2018-02-02T04:47:18.024Z,99.99
2018-02-02T04:48:18.014Z,99.99
2018-02-02T04:49:17.941Z,99.99
2018-02-02T04:50:17.898Z,99.99
2018-02-02T04:51:17.856Z,99.99
2018-02-02T04:52:17.807Z,99.99
2018-02-02T04:53:17.763Z,99.99
2018-02-02T04:54:17.748Z,99.99
2018-02-02T04:55:17.677Z,99.99
2018-02-02T04:56:17.637Z,99.99
2018-02-02T04:57:17.596Z,99.99
2018-02-02T04:58:17.578Z,99.99
2018-02-02T04:59:17.501Z,99.99
2018-02-02T05:00:17.459Z,99.99
2018-02-02T05:01:17.412Z,99.99
2018-02-02T05:02:17.378Z,99.99
2018-02-02T05:03:17.340Z,99.99
2018-02-02T05:04:17.311Z,99.99
2018-02-02T05:05:17.251Z,99.99
2018-02-02T05:06:17.197Z,99.99
2018-02-02T05:07:17.155Z,99.99
2018-02-02T05:08:17.110Z,99.99
2018-02-02T05:09:17.101Z,99.99
2018-02-02T05:10:17.024Z,99.99
2018-02-02T05:11:16.987Z,99.99
2018-02-02T05:12:16.938Z,99.99
2018-02-02T05:13:16.902Z,99.99
2018-02-02T05:14:16.851Z,99.99
2018-02-02T05:15:16.842Z,99.99
2018-02-02T05:16:16.765Z,99.99
2018-02-02T05:17:16.728Z,99.99
2018-02-02T05:18:16.684Z,99.99
2018-02-02T05:19:16.639Z,99.99
2018-02-02T05:20:16.631Z,99.99
2018-02-02T05:21:16.555Z,99.99
2018-02-02T05:22:16.511Z,99.99
2018-02-02T05:23:16.462Z,99.99
2018-02-02T05:24:16.421Z,99.99
2018-02-02T05:25:16.376Z,99.99
2018-02-02T05:26:16.367Z,99.99
2018-02-02T05:27:16.296Z,99.99
2018-02-02T05:28:16.246Z,99.99
2018-02-02T05:29:16.204Z,99.99
2018-02-02T05:30:16.161Z,99.99
2018-02-02T05:31:16.120Z,99.99
2018-02-02T05:32:16.110Z,99.99
2018-02-02T05:33:16.036Z,99.99
2018-02-02T05:34:15.987Z,99.99
2018-02-02T05:35:15.951Z,99.99
2018-02-02T05:36:15.908Z,99.99
2018-02-02T05:37:15.857Z,99.99
2018-02-02T05:38:15.841Z,99.99
2018-02-02T05:39:15.778Z,99.99
2018-02-02T05:40:15.738Z,99.99
2018-02-02T05:41:15.683Z,99.99
2018-02-02T05:42:15.641Z,99.99
2018-02-02T05:43:15.599Z,99.99
2018-02-02T05:44:15.582Z,99.99
2018-02-02T05:45:15.517Z,99.99
2018-02-02T05:46:15.475Z,99.99
2018-02-02T05:47:15.432Z,99.99
2018-02-02T05:48:15.383Z,99.99
2018-02-02T05:49:15.346Z,99.99
2018-02-02T05:50:15.324Z,99.99
2018-02-02T05:51:15.262Z,99.99
2018-02-02T05:52:15.218Z,99.99
2018-02-02T05:53:15.173Z,99.99
2018-02-02T05:54:15.124Z,99.99
2018-02-02T05:55:15.088Z,99.99
2018-02-02T05:56:15.062Z,99.99
2018-02-02T05:57:14.993Z,99.99
2018-02-02T05:58:14.962Z,99.99
2018-02-02T05:59:14.915Z,99.99
2018-02-02T06:00:14.864Z,99.99
2018-02-02T06:01:14.846Z,99.99
2018-02-02T06:02:14.777Z,99.99
2018-02-02T06:03:14.735Z,99.99
2018-02-02T06:04:14.701Z,99.99
2018-02-02T06:05:14.661Z,99.99
2018-02-02T06:06:14.634Z,99.99
2018-02-02T06:07:14.569Z,99.99
2018-02-02T06:08:14.569Z,99.99
2018-02-02T06:09:14.510Z,99.99
2018-02-02T06:10:14.432Z,99.99
2018-02-02T06:11:14.396Z,99.99
2018-02-02T06:12:14.380Z,99.99
2018-02-02T06:13:14.310Z,99.99
2018-02-02T06:14:14.265Z,99.99
2018-02-02T06:15:14.219Z,99.99
2018-02-02T06:16:14.173Z,99.99
2018-02-02T06:17:14.139Z,99.99
2018-02-02T06:18:14.120Z,99.99
2018-02-02T06:19:14.046Z,99.99
2018-02-02T06:20:14.002Z,99.99
2018-02-02T06:21:13.962Z,99.99
2018-02-02T06:22:13.918Z,99.99
2018-02-02T06:23:13.875Z,99.99
2018-02-02T06:24:13.868Z,99.99
2018-02-02T06:25:13.794Z,99.99
2018-02-02T06:26:13.751Z,99.99
2018-02-02T06:27:13.708Z,99.99
2018-02-02T06:28:13.658Z,99.99
2018-02-02T06:29:13.617Z,99.99
2018-02-02T06:30:13.602Z,99.99
2018-02-02T06:31:13.536Z,99.99
2018-02-02T06:32:13.486Z,99.99
2018-02-02T06:33:13.450Z,99.99
2018-02-02T06:34:13.400Z,99.99
2018-02-02T06:35:13.364Z,99.99
2018-02-02T06:36:13.344Z,99.99
2018-02-02T06:37:13.277Z,99.99
2018-02-02T06:38:13.230Z,99.99
2018-02-02T06:39:13.185Z,99.99
2018-02-02T06:40:13.144Z,99.99
2018-02-02T06:41:13.101Z,99.99
2018-02-02T06:42:13.090Z,99.99
2018-02-02T06:43:13.024Z,99.99
2018-02-02T06:44:12.976Z,99.99
2018-02-02T06:45:12.935Z,99.99
2018-02-02T06:46:12.889Z,99.99
2018-02-02T06:47:12.848Z,99.99
2018-02-02T06:48:12.832Z,99.99
2018-02-02T06:49:12.755Z,99.99
2018-02-02T06:50:12.713Z,99.99
2018-02-02T06:51:12.675Z,99.99
2018-02-02T06:52:12.636Z,99.99
2018-02-02T06:53:12.585Z,99.99
2018-02-02T06:54:12.575Z,99.99
2018-02-02T06:55:12.506Z,99.99
2018-02-02T06:56:12.457Z,99.99
2018-02-02T06:57:12.414Z,99.99
2018-02-02T06:58:12.373Z,99.99
2018-02-02T06:59:12.328Z,99.99
2018-02-02T07:00:12.318Z,99.99
2018-02-02T07:01:12.246Z,99.99
2018-02-02T07:02:12.197Z,99.99
2018-02-02T07:03:12.162Z,99.99
2018-02-02T07:04:12.115Z,99.99
2018-02-02T07:05:12.067Z,99.99
2018-02-02T07:06:12.057Z,99.99
2018-02-02T07:07:11.987Z,99.99
2018-02-02T07:08:11.952Z,99.99
2018-02-02T07:09:11.905Z,99.99
2018-02-02T07:10:11.860Z,99.99
2018-02-02T07:11:11.817Z,99.99
2018-02-02T07:12:11.798Z,99.99
2018-02-02T07:13:11.727Z,99.99
2018-02-02T07:14:11.691Z,99.99
2018-02-02T07:15:11.650Z,99.99
2018-02-02T07:16:11.603Z,99.99
2018-02-02T07:17:11.566Z,99.99
2018-02-02T07:18:11.543Z,99.99
2018-02-02T07:19:11.471Z,99.99
2018-02-02T07:20:11.436Z,99.99
2018-02-02T07:21:11.386Z,99.99
2018-02-02T07:22:11.353Z,99.99
2018-02-02T07:23:11.306Z,99.99
2018-02-02T07:24:11.292Z,99.99
2018-02-02T07:25:11.216Z,99.99
2018-02-02T07:26:11.174Z,99.99
2018-02-02T07:27:11.134Z,99.99
2018-02-02T07:28:11.094Z,99.99
2018-02-02T07:29:11.044Z,99.99
2018-02-02T07:30:11.037Z,99.99
2018-02-02T07:31:10.966Z,99.99
2018-02-02T07:32:10.952Z,99.99
2018-02-02T07:33:10.884Z,99.99
2018-02-02T07:34:10.841Z,99.99
2018-02-02T07:35:10.785Z,99.99
2018-02-02T07:36:10.790Z,99.99
2018-02-02T07:37:10.708Z,99.99
2018-02-02T07:38:10.677Z,99.99
2018-02-02T07:39:10.624Z,99.99
2018-02-02T07:40:10.590Z,99.99
2018-02-02T07:41:10.542Z,99.99
2018-02-02T07:42:10.525Z,99.99
2018-02-02T07:43:10.476Z,99.99
2018-02-02T07:44:10.412Z,99.99
2018-02-02T07:45:10.366Z,99.99
2018-02-02T07:46:10.326Z,99.99
2018-02-02T07:47:10.282Z,99.99
2018-02-02T07:48:10.270Z,99.99
2018-02-02T07:49:10.194Z,99.99
2018-02-02T07:50:10.155Z,99.99
2018-02-02T07:51:10.114Z,99.99
2018-02-02T07:52:10.070Z,99.99
2018-02-02T07:53:10.021Z,99.99
2018-02-02T07:54:10.009Z,99.99
2018-02-02T07:55:09.937Z,99.99
2018-02-02T07:56:09.901Z,99.99
2018-02-02T07:57:09.851Z,99.99
2018-02-02T07:58:09.811Z,99.99
2018-02-02T07:59:09.764Z,99.99
2018-02-02T08:00:09.760Z,99.99
2018-02-02T08:01:09.713Z,99.99
2018-02-02T08:02:09.646Z,99.99
2018-02-02T08:03:09.598Z,99.99
2018-02-02T08:04:09.561Z,99.99
2018-02-02T08:05:09.523Z,99.99
2018-02-02T08:06:09.498Z,99.99
2018-02-02T08:07:09.433Z,99.99
2018-02-02T08:08:09.383Z,99.99
2018-02-02T08:09:09.344Z,99.99
2018-02-02T08:10:09.313Z,99.99
2018-02-02T08:11:09.261Z,99.99
2018-02-02T08:12:09.250Z,99.99
2018-02-02T08:13:09.179Z,99.99
2018-02-02T08:14:09.139Z,99.99
2018-02-02T08:15:09.084Z,99.99
2018-02-02T08:16:09.043Z,99.99
2018-02-02T08:17:09.004Z,99.99
2018-02-02T08:18:08.997Z,99.99
2018-02-02T08:19:08.914Z,99.99
2018-02-02T08:20:08.875Z,99.99
2018-02-02T08:21:08.835Z,99.99
2018-02-02T08:22:08.786Z,99.99
2018-02-02T08:23:08.748Z,99.99
2018-02-02T08:24:08.733Z,99.99
2018-02-02T08:25:08.668Z,99.99
2018-02-02T08:26:08.619Z,99.99
2018-02-02T08:27:08.579Z,99.99
2018-02-02T08:28:08.531Z,99.99
2018-02-02T08:29:08.486Z,99.99
2018-02-02T08:30:08.478Z,99.99
2018-02-02T08:31:08.411Z,99.99
2018-02-02T08:32:08.369Z,99.99
2018-02-02T08:33:08.316Z,99.99
2018-02-02T08:34:08.277Z,99.99
2018-02-02T08:35:08.233Z,99.99
2018-02-02T08:36:08.243Z,99.99
2018-02-02T08:37:08.146Z,99.99
2018-02-02T08:38:08.104Z,99.99
2018-02-02T08:39:08.073Z,99.99
2018-02-02T08:40:08.072Z,99.99
2018-02-02T08:41:07.984Z,99.99
2018-02-02T08:42:07.973Z,99.99
2018-02-02T08:43:07.925Z,99.99
2018-02-02T08:44:07.856Z,99.99
2018-02-02T08:45:07.821Z,99.99
2018-02-02T08:46:07.825Z,99.99
2018-02-02T08:47:07.728Z,99.99
2018-02-02T08:48:07.711Z,99.99
2018-02-02T08:49:07.647Z,99.99
2018-02-02T08:50:07.603Z,99.99
2018-02-02T08:51:07.565Z,99.99
2018-02-02T08:52:07.511Z,99.99
2018-02-02T08:53:07.479Z,99.99
2018-02-02T08:54:07.456Z,99.99
2018-02-02T08:55:07.394Z,99.99
2018-02-02T08:56:07.347Z,99.99
2018-02-02T08:57:07.317Z,99.99
2018-02-02T08:58:07.261Z,99.99
2018-02-02T08:59:07.223Z,99.99
2018-02-02T09:00:07.203Z,99.99
2018-02-02T09:01:07.132Z,99.99
2018-02-02T09:02:07.090Z,99.99
2018-02-02T09:03:07.044Z,99.99
2018-02-02T09:04:07.006Z,99.99
2018-02-02T09:05:06.960Z,99.99
2018-02-02T09:06:07.000Z,99.99
2018-02-02T09:07:06.869Z,99.99
2018-02-02T09:08:06.827Z,99.99
2018-02-02T09:09:06.794Z,99.99
2018-02-02T09:10:06.740Z,99.99
2018-02-02T09:11:06.697Z,99.99
2018-02-02T09:12:06.686Z,99.99
2018-02-02T09:13:06.619Z,99.99
2018-02-02T09:14:06.580Z,99.99
2018-02-02T09:15:06.533Z,99.99
2018-02-02T09:16:06.488Z,99.99
2018-02-02T09:17:06.440Z,99.99
2018-02-02T09:18:06.424Z,99.99
2018-02-02T09:19:06.366Z,99.99
2018-02-02T09:20:06.311Z,99.99
2018-02-02T09:21:06.277Z,99.99
2018-02-02T09:22:06.226Z,99.99
2018-02-02T09:23:06.187Z,99.99
2018-02-02T09:24:06.166Z,99.99
2018-02-02T09:25:06.105Z,99.99
2018-02-02T09:26:06.074Z,99.99
2018-02-02T09:27:06.015Z,99.99
2018-02-02T09:28:05.971Z,99.99
2018-02-02T09:29:05.959Z,99.99
2018-02-02T09:30:05.887Z,99.99
2018-02-02T09:31:05.851Z,99.99
2018-02-02T09:32:05.794Z,99.99
2018-02-02T09:33:05.762Z,99.99
2018-02-02T09:34:05.720Z,99.99
2018-02-02T09:35:05.689Z,99.99
2018-02-02T09:36:05.628Z,99.99
2018-02-02T09:37:05.605Z,99.99
2018-02-02T09:38:05.548Z,99.99
2018-02-02T09:39:05.503Z,99.99
2018-02-02T09:40:05.481Z,99.99
2018-02-02T09:41:05.404Z,99.99
2018-02-02T09:42:05.367Z,99.99
2018-02-02T09:43:05.322Z,99.99
2018-02-02T09:44:05.287Z,99.99
2018-02-02T09:45:05.242Z,99.99
2018-02-02T09:46:05.231Z,99.99
2018-02-02T09:47:05.158Z,99.99
2018-02-02T09:48:05.118Z,99.99
2018-02-02T09:49:05.068Z,99.99
2018-02-02T09:50:05.173Z,99.99
2018-02-02T09:51:04.976Z,99.99
2018-02-02T09:52:04.976Z,99.99
2018-02-02T09:53:04.900Z,99.99
2018-02-02T09:54:04.858Z,99.99
2018-02-02T09:55:04.811Z,99.99
2018-02-02T09:56:04.769Z,99.99
2018-02-02T09:57:04.727Z,99.99
2018-02-02T09:58:04.710Z,99.99
2018-02-02T09:59:04.654Z,99.99
2018-02-02T10:00:04.600Z,99.99
2018-02-02T10:01:04.556Z,99.99
2018-02-02T10:02:04.527Z,99.99
2018-02-02T10:03:04.524Z,99.99
2018-02-02T10:04:04.436Z,99.99
2018-02-02T10:05:04.376Z,99.99
2018-02-02T10:06:04.345Z,99.99
2018-02-02T10:07:04.322Z,99.99
2018-02-02T10:08:04.289Z,99.99
2018-02-02T10:09:04.237Z,99.99
2018-02-02T10:10:04.181Z,99.99
2018-02-02T10:11:04.144Z,99.99
2018-02-02T10:12:04.106Z,99.99
2018-02-02T10:13:04.050Z,99.99
2018-02-02T10:14:04.034Z,99.99
2018-02-02T10:15:03.961Z,99.99
2018-02-02T10:16:03.930Z,99.99
2018-02-02T10:17:03.874Z,99.99
2018-02-02T10:18:03.844Z,99.99
2018-02-02T10:19:03.785Z,99.99
2018-02-02T10:20:03.788Z,99.99
2018-02-02T10:21:03.700Z,99.99
2018-02-02T10:22:03.664Z,99.99
2018-02-02T10:23:03.633Z,99.99
2018-02-02T10:24:03.590Z,99.99
2018-02-02T10:25:03.549Z,99.99
2018-02-02T10:26:03.518Z,99.99
2018-02-02T10:27:03.460Z,99.99
2018-02-02T10:28:03.417Z,99.99
2018-02-02T10:29:03.391Z,99.99
2018-02-02T10:30:03.336Z,99.99
2018-02-02T10:31:03.280Z,99.99
2018-02-02T10:32:03.264Z,99.99
2018-02-02T10:33:03.205Z,99.99
2018-02-02T10:34:03.162Z,99.99
2018-02-02T10:35:03.111Z,99.99
2018-02-02T10:36:03.081Z,99.99
2018-02-02T10:37:03.040Z,99.99
2018-02-02T10:38:03.022Z,99.99
2018-02-02T10:39:02.955Z,99.99
2018-02-02T10:40:02.915Z,99.99
2018-02-02T10:41:02.865Z,99.99
2018-02-02T10:42:02.823Z,99.99
2018-02-02T10:43:02.788Z,99.99
2018-02-02T10:44:02.762Z,99.99
2018-02-02T10:45:02.700Z,99.99
2018-02-02T10:46:02.649Z,99.99
2018-02-02T10:47:02.619Z,99.99
2018-02-02T10:48:02.572Z,99.99
2018-02-02T10:49:02.530Z,99.99
2018-02-02T10:50:02.497Z,99.99
2018-02-02T10:51:02.435Z,99.99
2018-02-02T10:52:02.399Z,99.99
2018-02-02T10:53:02.360Z,99.99
2018-02-02T10:54:02.306Z,99.99
2018-02-02T10:55:02.316Z,99.99
2018-02-02T10:56:02.231Z,99.99
2018-02-02T10:57:02.182Z,99.99
2018-02-02T10:58:02.137Z,99.99
2018-02-02T10:59:02.114Z,99.99
2018-02-02T11:00:02.061Z,99.99
2018-02-02T11:01:02.037Z,99.99
2018-02-02T11:02:01.975Z,99.99
2018-02-02T11:03:01.933Z,99.99
2018-02-02T11:04:01.898Z,99.99
2018-02-02T11:05:01.877Z,99.99
2018-02-02T11:06:01.809Z,99.99
2018-02-02T11:07:01.756Z,99.99
2018-02-02T11:08:01.721Z,99.99
2018-02-02T11:09:01.674Z,99.99
2018-02-02T11:10:01.636Z,99.99
2018-02-02T11:11:01.620Z,99.99
2018-02-02T11:12:01.551Z,99.99
2018-02-02T11:13:01.505Z,99.99
2018-02-02T11:14:01.473Z,99.99
2018-02-02T11:15:01.431Z,99.99
2018-02-02T11:16:01.395Z,99.99
2018-02-02T11:17:01.372Z,99.99
2018-02-02T11:18:01.301Z,99.99
2018-02-02T11:19:01.259Z,99.99
2018-02-02T11:20:01.212Z,99.99
2018-02-02T11:21:01.192Z,99.99
2018-02-02T11:22:01.158Z,99.99
2018-02-02T11:23:01.085Z,99.99
2018-02-02T11:24:01.050Z,99.99
2018-02-02T11:25:01.009Z,99.99
2018-02-02T11:26:00.964Z,99.99
2018-02-02T11:27:00.937Z,99.99
2018-02-02T11:28:00.912Z,99.99
2018-02-02T11:29:00.843Z,99.99
2018-02-02T11:30:00.799Z,99.99
2018-02-02T11:31:00.758Z,99.99
2018-02-02T11:32:00.718Z,99.99
2018-02-02T11:33:00.673Z,99.99
2018-02-02T11:34:00.651Z,99.99
2018-02-02T11:35:00.591Z,99.99
2018-02-02T11:36:00.541Z,99.99
2018-02-02T11:37:00.507Z,99.99
2018-02-02T11:38:00.460Z,99.99
2018-02-02T11:39:00.475Z,99.99
2018-02-02T11:40:00.377Z,99.99
2018-02-02T11:41:00.342Z,99.99
2018-02-02T11:42:00.302Z,99.99
2018-02-02T11:43:00.260Z,99.99
2018-02-02T11:44:00.242Z,99.99
2018-02-02T11:45:00.169Z,99.99
2018-02-02T11:46:00.130Z,99.99
2018-02-02T11:47:00.086Z,99.99
2018-02-02T11:48:00.056Z,99.99
2018-02-02T11:49:00.012Z,99.99
2018-02-02T11:49:59.994Z,99.99
2018-02-02T11:50:59.929Z,99.99
2018-02-02T11:51:59.890Z,99.99
2018-02-02T11:52:59.842Z,99.99
2018-02-02T11:53:59.795Z,99.99
2018-02-02T11:54:59.756Z,99.99
2018-02-02T11:55:59.744Z,99.99
2018-02-02T11:56:59.678Z,99.99
2018-02-02T11:57:59.629Z,99.99
2018-02-02T11:58:59.593Z,99.99
2018-02-02T11:59:59.548Z,99.99
2018-02-02T12:00:59.506Z,99.99
2018-02-02T12:01:59.492Z,99.99
2018-02-02T12:02:59.430Z,99.99
2018-02-02T12:03:59.394Z,99.99
2018-02-02T12:04:59.347Z,99.99
2018-02-02T12:05:59.305Z,99.99
2018-02-02T12:06:59.258Z,99.99
2018-02-02T12:07:59.249Z,99.99
2018-02-02T12:08:59.181Z,99.99
2018-02-02T12:09:59.141Z,99.99
2018-02-02T12:10:59.095Z,99.99
2018-02-02T12:11:59.058Z,99.99
2018-02-02T12:12:59.009Z,99.99
2018-02-02T12:13:58.993Z,99.99
2018-02-02T12:14:58.927Z,99.99
2018-02-02T12:15:58.892Z,99.99
2018-02-02T12:16:58.846Z,99.99
2018-02-02T12:17:58.808Z,99.99
2018-02-02T12:18:58.802Z,99.99
2018-02-02T12:19:58.728Z,99.99
2018-02-02T12:20:58.693Z,99.99
2018-02-02T12:21:58.638Z,99.99
2018-02-02T12:22:58.595Z,99.99
2018-02-02T12:23:58.553Z,99.99
2018-02-02T12:24:58.552Z,99.99
2018-02-02T12:25:58.476Z,99.99
2018-02-02T12:26:58.436Z,99.99
2018-02-02T12:27:58.398Z,99.99
2018-02-02T12:28:58.353Z,99.99
2018-02-02T12:29:58.306Z,99.99
2018-02-02T12:30:58.454Z,99.99
2018-02-02T12:31:58.227Z,99.99
2018-02-02T12:32:58.178Z,99.99
2018-02-02T12:33:58.143Z,99.99
2018-02-02T12:34:58.095Z,99.99
2018-02-02T12:35:58.059Z,99.99
2018-02-02T12:36:58.047Z,99.99
2018-02-02T12:37:57.977Z,99.99
2018-02-02T12:38:57.931Z,99.99
2018-02-02T12:39:57.891Z,99.99
2018-02-02T12:40:57.852Z,99.99
2018-02-02T12:41:57.812Z,99.99
2018-02-02T12:42:57.793Z,99.99
2018-02-02T12:43:57.724Z,99.99
2018-02-02T12:44:57.696Z,99.99
2018-02-02T12:45:57.652Z,99.99
2018-02-02T12:46:57.609Z,99.99
2018-02-02T12:47:57.565Z,99.99
2018-02-02T12:48:57.550Z,99.99
2018-02-02T12:49:57.481Z,99.99
2018-02-02T12:50:57.440Z,99.99
2018-02-02T12:51:57.406Z,99.99